METAR Data
IDs: Format: Raw Decoded Include TAF

Data at: 0653 UTC 03 Aug 2021

KMYF 030553Z AUTO 34005KT 10SM CLR 22/13 A2998 RMK AO2 SLP147 T02220128 10300 20222 50006
KMYF 030453Z AUTO 34005KT 10SM CLR 23/12 A2999 RMK AO2 SLP148 T02280122
KMYF 030353Z AUTO 34006KT 10SM CLR 23/13 A2998 RMK AO2 SLP147 T02330133
KMYF 030253Z 32010KT 10SM CLR 24/15 A2996 RMK AO2 SLP141 T02440150 53003
KMYF 030153Z 33008KT 10SM CLR 27/14 A2995 RMK AO2 SLP138 T02720139
KMYF 030053Z 33010KT 10SM CLR 29/12 A2995 RMK AO2 SLP136 T02890117
KMYF 022353Z 30010KT 10SM CLR 29/12 A2995 RMK AO2 SLP138 T02940122 10328 20283 58009
KMYF 022253Z 32011KT 10SM CLR 31/11 A2996 RMK AO2 SLP140 T03060106
KMYF 022153Z 32008KT 10SM CLR 32/09 A2997 RMK AO2 SLP144 T03170089
KMYF 022053Z 31009KT 10SM CLR 32/11 A2998 RMK AO2 SLP146 T03220106 58016
KMYF 021953Z 29010KT 10SM CLR 32/12 A3000 RMK AO2 SLP153 T03170117
KMYF 021853Z 27007KT 10SM CLR 32/13 A3001 RMK AO2 SLP156 T03170128
KMYF 021753Z 32006KT 10SM CLR 28/15 A3003 RMK AO2 SLP163 T02830150 10283 20183 58010
KMYF 021653Z VRB05KT 10SM CLR 27/14 A3004 RMK AO2 SLP167 T02670139
KMYF 021553Z 31005KT 10SM CLR 24/14 A3005 RMK AO2 SLP173 T02390144
KMYF 021453Z 34007KT 10SM CLR 21/15 A3006 RMK AO2 SLP174 T02110150 51012
KMYF 021353Z 35006KT 10SM CLR 19/15 A3005 RMK AO2 SLP170 T01890150
KMYF 021253Z AUTO 36005KT 10SM CLR 18/15 A3004 RMK AO2 SLP168 T01830150
KMYF 021153Z AUTO 34005KT 10SM CLR 18/14 A3002 RMK AO2 SLP161 T01830144 10206 20183 56001
KMYF 021053Z AUTO 34006KT 10SM CLR 19/14 A3002 RMK AO2 SLP162 T01890144
KMYF 020953Z AUTO 31004KT 10SM CLR 19/16 A3002 RMK AO2 SLP160 T01890156
KMYF 020853Z AUTO 32004KT 10SM CLR 19/16 A3002 RMK AO2 SLP163 T01940156 57003
KMYF 020753Z AUTO 32005KT 10SM CLR 20/16 A3003 RMK AO2 SLP163 T02000156 403110161
KMYF 020653Z AUTO 34006KT 10SM CLR 20/15 A3004 RMK AO2 SLP165 T02000150
KMYF 020553Z AUTO 32005KT 10SM CLR 21/15 A3003 RMK AO2 SLP165 T02060150 10294 20206 51009
KMYF 020453Z 34006KT 10SM CLR 21/14 A3003 RMK AO2 SLP165 T02110144
KMYF 020353Z 35009KT 10SM CLR 22/14 A3002 RMK AO2 SLP160 T02170139
KMYF 020253Z 32010KT 10SM CLR 23/16 A3001 RMK AO2 SLP158 T02280156 53006
KMYF 020153Z 33011KT 10SM CLR 26/14 A3000 RMK AO2 SLP153 T02610139
KMYF 020053Z 33008KT 10SM CLR 28/12 A2999 RMK AO2 SLP150 T02830122
KMYF 012353Z 31012KT 10SM CLR 29/08 A2999 RMK AO2 SLP151 T02890083 10311 20283 58009
KMYF 012253Z 32009KT 10SM CLR 29/13 A3001 RMK AO2 SLP157 T02890128
KMYF 012153Z 32010KT 10SM CLR 30/09 A3001 RMK AO2 SLP159 T03000094
KMYF 012053Z 31009KT 10SM CLR 29/14 A3002 RMK AO2 SLP160 T02890144 56010
KMYF 011953Z 29009KT 10SM CLR 29/14 A3003 RMK AO2 SLP163 T02890144